createdAt,value
2018-09-04T00:00:07.919Z,19.30
2018-09-04T00:02:34.703Z,19.20
2018-09-04T00:05:00.694Z,19.20
2018-09-04T00:07:27.519Z,19.10
2018-09-04T00:09:53.493Z,19.10
2018-09-04T00:12:19.456Z,19.10
2018-09-04T00:14:45.440Z,19.00
2018-09-04T00:17:12.145Z,19.00
2018-09-04T00:19:38.183Z,19.00
2018-09-04T00:22:04.184Z,18.90
2018-09-04T00:24:30.185Z,18.90
2018-09-04T00:26:56.151Z,18.90
2018-09-04T00:29:22.915Z,18.80
2018-09-04T00:31:48.896Z,18.80
2018-09-04T00:34:15.007Z,18.80
2018-09-04T00:36:40.981Z,18.70
2018-09-04T00:39:06.984Z,18.80
2018-09-04T00:41:32.975Z,18.80
2018-09-04T00:43:58.980Z,18.80
2018-09-04T00:46:25.007Z,18.90
2018-09-04T00:48:50.987Z,18.90
2018-09-04T00:51:16.995Z,18.80
2018-09-04T00:53:42.965Z,18.90
2018-09-04T00:56:08.979Z,18.80
2018-09-04T00:58:34.975Z,18.70
2018-09-04T01:01:01.737Z,18.60
2018-09-04T01:03:27.734Z,18.60
2018-09-04T01:05:54.448Z,18.60
2018-09-04T01:08:20.452Z,18.60
2018-09-04T01:10:46.428Z,18.50
2018-09-04T01:13:13.163Z,18.50
2018-09-04T01:15:39.144Z,18.50
2018-09-04T01:18:05.232Z,18.50
2018-09-04T01:20:31.222Z,18.50
2018-09-04T01:22:57.166Z,18.60
2018-09-04T01:25:23.884Z,18.50
2018-09-04T01:27:49.907Z,18.50
2018-09-04T01:30:15.952Z,18.60
2018-09-04T01:32:42.660Z,18.60
2018-09-04T01:35:08.760Z,18.60
2018-09-04T01:37:34.743Z,18.60
2018-09-04T01:40:01.469Z,18.60
2018-09-04T01:42:28.213Z,18.60
2018-09-04T01:44:54.190Z,18.50
2018-09-04T01:47:20.201Z,18.50
2018-09-04T01:49:46.214Z,18.50
2018-09-04T01:52:12.333Z,18.50
2018-09-04T01:54:38.346Z,18.40
2018-09-04T01:57:05.099Z,18.40
2018-09-04T01:59:31.096Z,18.40
2018-09-04T02:01:57.839Z,18.50
2018-09-04T02:04:23.859Z,18.50
2018-09-04T02:06:50.613Z,18.50
2018-09-04T02:09:17.341Z,18.40
2018-09-04T02:11:43.321Z,18.40
2018-09-04T02:14:09.309Z,18.40
2018-09-04T02:16:35.332Z,18.40
2018-09-04T02:19:02.066Z,18.40
2018-09-04T02:21:28.899Z,18.30
2018-09-04T02:23:55.638Z,18.30
2018-09-04T02:26:21.614Z,18.30
2018-09-04T02:28:47.663Z,18.20
2018-09-04T02:31:14.412Z,18.10
2018-09-04T02:33:40.425Z,18.10
2018-09-04T02:36:06.440Z,18.10
2018-09-04T02:38:32.528Z,18.00
2018-09-04T02:40:58.534Z,18.00
2018-09-04T02:43:24.481Z,17.90
2018-09-04T02:45:50.454Z,17.80
2018-09-04T02:48:16.417Z,17.80
2018-09-04T02:50:43.147Z,17.60
2018-09-04T02:53:09.861Z,17.60
2018-09-04T02:55:35.857Z,17.60
2018-09-04T02:58:01.852Z,17.60
2018-09-04T03:00:27.820Z,17.50
2018-09-04T03:02:53.827Z,17.50
2018-09-04T03:05:19.807Z,17.40
2018-09-04T03:07:45.808Z,17.30
2018-09-04T03:10:11.801Z,17.20
2018-09-04T03:12:37.822Z,17.20
2018-09-04T03:15:03.818Z,17.20
2018-09-04T03:17:29.850Z,17.20
2018-09-04T03:19:55.848Z,17.20
2018-09-04T03:22:22.627Z,17.10
2018-09-04T03:24:48.635Z,17.10
2018-09-04T03:27:14.722Z,17.10
2018-09-04T03:29:40.729Z,17.00
2018-09-04T03:32:06.769Z,17.10
2018-09-04T03:34:32.938Z,17.00
2018-09-04T03:36:58.951Z,17.00
2018-09-04T03:39:24.941Z,17.00
2018-09-04T03:41:51.644Z,17.00
2018-09-04T03:44:17.670Z,17.00
2018-09-04T03:46:43.636Z,17.00
2018-09-04T03:49:09.650Z,17.00
2018-09-04T03:51:35.623Z,16.90
2018-09-04T03:54:01.750Z,16.80
2018-09-04T03:56:27.744Z,16.80
2018-09-04T03:58:53.728Z,16.80
2018-09-04T04:01:19.795Z,16.80
2018-09-04T04:03:45.739Z,16.80
2018-09-04T04:06:11.738Z,16.70
2018-09-04T04:08:37.717Z,16.70
2018-09-04T04:11:03.701Z,16.70
2018-09-04T04:13:29.667Z,16.70
2018-09-04T04:15:55.692Z,16.80
2018-09-04T04:18:21.677Z,16.80
2018-09-04T04:20:48.442Z,16.80
2018-09-04T04:23:14.412Z,16.80
2018-09-04T04:25:40.444Z,16.70
2018-09-04T04:28:06.415Z,16.80
2018-09-04T04:30:32.391Z,16.70
2018-09-04T04:32:58.392Z,16.70
2018-09-04T04:35:24.396Z,16.50
2018-09-04T04:37:51.166Z,16.50
2018-09-04T04:40:17.877Z,16.50
2018-09-04T04:42:43.885Z,16.50
2018-09-04T04:45:09.878Z,16.50
2018-09-04T04:47:35.907Z,16.40
2018-09-04T04:50:01.942Z,16.40
2018-09-04T04:52:27.974Z,16.30
2018-09-04T04:54:53.984Z,16.30
2018-09-04T04:57:20.135Z,16.20
2018-09-04T04:59:46.911Z,16.20
2018-09-04T05:02:12.985Z,16.20
2018-09-04T05:04:39.772Z,16.30
2018-09-04T05:07:05.786Z,16.20
2018-09-04T05:09:31.742Z,16.30
2018-09-04T05:11:57.742Z,16.30
2018-09-04T05:14:24.484Z,16.40
2018-09-04T05:16:51.210Z,16.50
2018-09-04T05:19:17.222Z,16.40
2018-09-04T05:21:43.196Z,16.50
2018-09-04T05:24:09.206Z,16.60
2018-09-04T05:26:35.902Z,16.70
2018-09-04T05:29:01.923Z,16.60
2018-09-04T05:31:27.932Z,16.70
2018-09-04T05:33:53.924Z,16.80
2018-09-04T05:36:19.888Z,16.80
2018-09-04T05:38:45.913Z,16.80
2018-09-04T05:41:11.894Z,16.90
2018-09-04T05:43:37.994Z,16.90
2018-09-04T05:46:04.749Z,16.90
2018-09-04T05:48:30.724Z,16.90
2018-09-04T05:50:56.732Z,17.00
2018-09-04T05:53:22.713Z,16.90
2018-09-04T05:55:49.505Z,17.00
2018-09-04T05:58:15.533Z,17.00
2018-09-04T06:00:41.530Z,17.00
2018-09-04T06:03:07.517Z,17.00
2018-09-04T06:05:33.542Z,17.00
2018-09-04T06:07:59.544Z,16.90
2018-09-04T06:10:26.377Z,17.10
2018-09-04T06:12:52.346Z,17.10
2018-09-04T06:15:18.386Z,17.30
2018-09-04T06:17:44.433Z,17.30
2018-09-04T06:20:10.517Z,17.50
2018-09-04T06:22:36.481Z,17.50
2018-09-04T06:25:02.474Z,17.60
2018-09-04T06:27:28.441Z,17.60
2018-09-04T06:29:54.420Z,17.70
2018-09-04T06:32:20.443Z,17.70
2018-09-04T06:34:46.390Z,17.90
2018-09-04T06:37:12.376Z,18.00
2018-09-04T06:39:39.095Z,18.90
2018-09-04T06:42:05.112Z,18.90
2018-09-04T06:44:31.118Z,19.70
2018-09-04T06:46:57.199Z,20.40
2018-09-04T06:49:23.182Z,20.70
2018-09-04T06:51:49.150Z,21.10
2018-09-04T06:54:15.119Z,21.30
2018-09-04T06:56:41.101Z,21.70
2018-09-04T06:59:07.103Z,22.00
2018-09-04T07:01:33.818Z,23.10
2018-09-04T07:04:00.581Z,23.40
2018-09-04T07:06:27.340Z,23.90
2018-09-04T07:08:53.431Z,23.80
2018-09-04T07:11:20.129Z,24.30
2018-09-04T07:13:46.091Z,24.30
2018-09-04T07:16:12.060Z,24.40
2018-09-04T07:18:38.033Z,25.00
2018-09-04T07:21:04.052Z,25.40
2018-09-04T07:23:30.019Z,25.50
2018-09-04T07:25:56.009Z,25.70
2018-09-04T07:28:21.972Z,26.10
2018-09-04T07:30:48.077Z,26.20
2018-09-04T07:33:14.788Z,25.80
2018-09-04T07:35:40.745Z,25.80
2018-09-04T07:38:06.753Z,26.00
2018-09-04T07:40:33.459Z,26.30
2018-09-04T07:42:59.428Z,26.30
2018-09-04T07:45:26.129Z,27.10
2018-09-04T07:47:52.144Z,27.00
2018-09-04T07:50:18.143Z,27.30
2018-09-04T07:52:44.141Z,27.60
2018-09-04T07:55:10.120Z,27.80
2018-09-04T07:57:36.120Z,27.40
2018-09-04T08:00:02.100Z,27.10
2018-09-04T08:02:28.833Z,28.40
2018-09-04T08:04:55.652Z,28.00
2018-09-04T08:07:22.403Z,27.90
2018-09-04T08:09:48.404Z,27.80
2018-09-04T08:12:14.365Z,27.70
2018-09-04T08:14:40.374Z,27.70
2018-09-04T08:17:06.336Z,28.20
2018-09-04T08:19:32.309Z,28.10
2018-09-04T08:21:59.107Z,29.20
2018-09-04T08:24:25.151Z,29.10
2018-09-04T08:26:51.148Z,29.50
2018-09-04T08:29:17.100Z,29.60
2018-09-04T08:31:43.104Z,29.20
2018-09-04T08:34:09.814Z,29.30
2018-09-04T08:36:35.780Z,29.30
2018-09-04T08:39:01.815Z,29.60
2018-09-04T08:41:27.742Z,29.50
2018-09-04T08:43:53.723Z,29.30
2018-09-04T08:46:20.452Z,30.20
2018-09-04T08:48:47.189Z,30.30
2018-09-04T08:51:13.151Z,30.30
2018-09-04T08:53:39.244Z,30.00
2018-09-04T08:56:05.188Z,30.20
2018-09-04T08:58:31.223Z,30.10
2018-09-04T09:00:57.240Z,30.20
2018-09-04T09:03:23.184Z,30.20
2018-09-04T09:05:49.195Z,30.60
2018-09-04T09:08:15.143Z,30.90
2018-09-04T09:10:41.955Z,30.70
2018-09-04T09:13:07.915Z,30.70
2018-09-04T09:15:33.923Z,31.30
2018-09-04T09:18:06.680Z,31.80
2018-09-04T09:20:32.677Z,31.90
2018-09-04T09:22:59.416Z,31.90
2018-09-04T09:25:25.426Z,31.90
2018-09-04T09:27:52.164Z,31.30
2018-09-04T09:30:18.862Z,31.90
2018-09-04T09:32:44.872Z,31.80
2018-09-04T09:35:10.850Z,32.00
2018-09-04T09:37:37.590Z,32.30
2018-09-04T09:40:03.574Z,32.20
2018-09-04T09:42:29.541Z,31.70
2018-09-04T09:44:55.572Z,31.60
2018-09-04T09:47:22.307Z,31.00
2018-09-04T09:49:49.013Z,31.30
2018-09-04T09:52:15.093Z,31.30
2018-09-04T09:54:41.040Z,31.40
2018-09-04T09:57:07.025Z,31.10
2018-09-04T09:59:33.043Z,30.90
2018-09-04T10:01:59.026Z,30.70
2018-09-04T10:04:25.033Z,31.10
2018-09-04T10:06:51.002Z,31.30
2018-09-04T10:09:17.003Z,31.10
2018-09-04T10:11:42.983Z,31.00
2018-09-04T10:14:08.975Z,30.30
2018-09-04T10:16:34.921Z,30.60
2018-09-04T10:19:00.901Z,31.00
2018-09-04T10:21:26.897Z,30.90
2018-09-04T10:23:52.872Z,30.80
2018-09-04T10:26:19.641Z,29.90
2018-09-04T10:28:45.605Z,29.90
2018-09-04T10:31:11.594Z,30.10
2018-09-04T10:33:37.561Z,29.80
2018-09-04T10:36:03.551Z,30.00
2018-09-04T10:38:29.518Z,30.00
2018-09-04T10:40:56.268Z,29.80
2018-09-04T10:43:23.015Z,29.30
2018-09-04T10:45:49.769Z,28.60
2018-09-04T10:48:15.764Z,28.60
2018-09-04T10:50:42.482Z,27.90
2018-09-04T10:53:08.503Z,27.90
2018-09-04T10:55:34.533Z,28.00
2018-09-04T10:58:00.532Z,27.80
2018-09-04T11:00:26.487Z,27.90
2018-09-04T11:02:53.251Z,27.80
2018-09-04T11:05:19.211Z,27.80
2018-09-04T11:07:45.187Z,27.80
2018-09-04T11:10:11.894Z,27.80
2018-09-04T11:12:37.881Z,27.70
2018-09-04T11:15:03.862Z,27.90
2018-09-04T11:17:29.954Z,28.10
2018-09-04T11:19:55.935Z,28.10
2018-09-04T11:22:21.918Z,28.10
2018-09-04T11:24:47.923Z,27.90
2018-09-04T11:27:13.892Z,28.10
2018-09-04T11:29:40.641Z,27.70
2018-09-04T11:32:07.364Z,27.70
2018-09-04T11:34:34.131Z,27.80
2018-09-04T11:37:00.135Z,27.70
2018-09-04T11:39:26.878Z,28.00
2018-09-04T11:41:53.589Z,28.10
2018-09-04T11:44:19.577Z,28.10
2018-09-04T11:46:45.570Z,28.20
2018-09-04T11:49:12.351Z,28.30
2018-09-04T11:51:38.317Z,28.30
2018-09-04T11:54:04.297Z,28.40
2018-09-04T11:56:31.030Z,28.00
2018-09-04T11:58:57.068Z,28.00
2018-09-04T12:01:23.094Z,28.00
2018-09-04T12:03:49.076Z,28.20
2018-09-04T12:06:15.088Z,27.90
2018-09-04T12:08:41.783Z,27.80
2018-09-04T12:11:07.773Z,27.80
2018-09-04T12:13:33.748Z,27.70
2018-09-04T12:15:59.762Z,27.50
2018-09-04T12:18:25.738Z,27.40
2018-09-04T12:20:51.803Z,27.30
2018-09-04T12:23:17.705Z,27.10
2018-09-04T12:25:43.693Z,27.00
2018-09-04T12:28:10.436Z,27.10
2018-09-04T12:30:37.141Z,27.10
2018-09-04T12:33:03.121Z,27.10
2018-09-04T12:35:29.089Z,27.30
2018-09-04T12:37:55.105Z,27.30
2018-09-04T12:40:21.093Z,27.20
2018-09-04T12:42:47.068Z,27.10
2018-09-04T12:45:13.067Z,27.30
2018-09-04T12:47:39.093Z,27.40
2018-09-04T12:50:05.067Z,27.50
2018-09-04T12:52:31.123Z,27.40
2018-09-04T12:54:57.065Z,27.30
2018-09-04T12:57:23.066Z,27.40
2018-09-04T12:59:49.062Z,27.40
2018-09-04T13:02:15.767Z,27.40
2018-09-04T13:04:41.743Z,27.40
2018-09-04T13:07:07.743Z,27.40
2018-09-04T13:09:33.716Z,27.30
2018-09-04T13:11:59.699Z,27.10
2018-09-04T13:14:25.727Z,27.20
2018-09-04T13:16:52.405Z,26.90
2018-09-04T13:19:18.390Z,26.90
2018-09-04T13:21:44.394Z,27.00
2018-09-04T13:24:10.392Z,27.00
2018-09-04T13:26:36.374Z,27.00
2018-09-04T13:29:02.407Z,27.00
2018-09-04T13:31:28.382Z,27.10
2018-09-04T13:33:55.156Z,26.90
2018-09-04T13:36:21.108Z,26.80
2018-09-04T13:38:47.138Z,26.90
2018-09-04T13:41:13.122Z,26.90
2018-09-04T13:43:39.096Z,26.90
2018-09-04T13:46:05.089Z,26.90
2018-09-04T13:48:31.066Z,26.80
2018-09-04T13:50:57.801Z,26.80
2018-09-04T13:53:24.535Z,26.90
2018-09-04T13:55:50.525Z,26.80
2018-09-04T13:58:16.520Z,26.90
2018-09-04T14:00:42.476Z,26.90
2018-09-04T14:03:08.469Z,26.90
2018-09-04T14:05:34.450Z,26.90
2018-09-04T14:08:00.451Z,26.80
2018-09-04T14:10:26.477Z,26.70
2018-09-04T14:12:52.463Z,26.50
2018-09-04T14:15:18.430Z,26.30
2018-09-04T14:17:44.427Z,26.20
2018-09-04T14:20:10.398Z,26.20
2018-09-04T14:22:36.494Z,26.20
2018-09-04T14:25:02.438Z,26.20
2018-09-04T14:27:29.169Z,26.30
2018-09-04T14:30:15.539Z,26.20
2018-09-04T14:32:21.130Z,26.30
2018-09-04T14:34:47.118Z,26.30
2018-09-04T14:37:13.282Z,26.30
2018-09-04T14:39:39.099Z,26.30
2018-09-04T14:42:05.085Z,26.30
2018-09-04T14:44:31.201Z,26.30
2018-09-04T14:46:57.221Z,26.20
2018-09-04T14:49:24.209Z,26.20
2018-09-04T14:51:50.179Z,26.20
2018-09-04T14:54:16.193Z,26.10
2018-09-04T14:56:42.183Z,26.10
2018-09-04T14:59:08.153Z,26.20
2018-09-04T15:01:34.161Z,26.00
2018-09-04T15:04:00.135Z,25.90
2018-09-04T15:06:26.238Z,26.00
2018-09-04T15:08:52.205Z,25.90
2018-09-04T15:11:18.959Z,25.90
2018-09-04T15:13:45.667Z,25.80
2018-09-04T15:16:11.616Z,25.90
2018-09-04T15:18:38.376Z,25.80
2018-09-04T15:21:04.382Z,25.80
2018-09-04T15:23:31.115Z,25.70
2018-09-04T15:25:57.842Z,25.70
2018-09-04T15:28:23.891Z,25.70
2018-09-04T15:30:50.580Z,25.60
2018-09-04T15:33:16.575Z,25.60
2018-09-04T15:35:42.569Z,25.60
2018-09-04T15:38:09.315Z,25.60
2018-09-04T15:40:36.010Z,25.60
2018-09-04T15:43:02.015Z,25.60
2018-09-04T15:45:27.983Z,25.60
2018-09-04T15:47:53.941Z,25.60
2018-09-04T15:50:19.953Z,25.60
2018-09-04T15:52:46.658Z,25.60
2018-09-04T15:55:12.675Z,25.60
2018-09-04T15:57:38.655Z,25.60
2018-09-04T16:00:04.651Z,25.40
2018-09-04T16:02:31.358Z,25.20
2018-09-04T16:04:57.366Z,25.20
2018-09-04T16:07:23.369Z,25.20
2018-09-04T16:09:49.454Z,25.10
2018-09-04T16:12:15.372Z,25.00
2018-09-04T16:14:41.361Z,25.00
2018-09-04T16:17:07.361Z,24.90
2018-09-04T16:19:33.356Z,24.90
2018-09-04T16:22:00.073Z,24.80
2018-09-04T16:24:26.078Z,24.80
2018-09-04T16:26:52.044Z,24.80
2018-09-04T16:29:18.792Z,24.70
2018-09-04T16:31:45.493Z,24.60
2018-09-04T16:34:11.537Z,24.60
2018-09-04T16:36:37.520Z,24.60
2018-09-04T16:39:03.475Z,24.50
2018-09-04T16:41:29.549Z,24.50
2018-09-04T16:43:55.562Z,24.50
2018-09-04T16:46:21.567Z,24.50
2018-09-04T16:48:48.278Z,24.40
2018-09-04T16:51:14.285Z,24.40
2018-09-04T16:53:40.244Z,24.30
2018-09-04T16:56:06.198Z,24.30
2018-09-04T16:58:32.210Z,24.30
2018-09-04T17:00:58.944Z,24.10
2018-09-04T17:03:25.757Z,24.10
2018-09-04T17:05:52.588Z,24.10
2018-09-04T17:08:19.364Z,24.00
2018-09-04T17:10:47.104Z,23.90
2018-09-04T17:13:13.111Z,23.90
2018-09-04T17:15:39.073Z,23.80
2018-09-04T17:18:05.071Z,23.80
2018-09-04T17:20:31.042Z,23.70
2018-09-04T17:22:57.044Z,23.60
2018-09-04T17:25:23.783Z,23.60
2018-09-04T17:27:49.737Z,23.60
2018-09-04T17:30:15.739Z,23.50
2018-09-04T17:32:42.436Z,23.40
2018-09-04T17:35:08.417Z,23.40
2018-09-04T17:37:34.362Z,23.30
2018-09-04T17:40:00.388Z,23.10
2018-09-04T17:42:26.352Z,23.20
2018-09-04T17:44:52.329Z,23.10
2018-09-04T17:47:18.331Z,22.90
2018-09-04T17:49:44.287Z,22.80
2018-09-04T17:52:10.268Z,22.60
2018-09-04T17:54:36.236Z,22.60
2018-09-04T17:57:02.245Z,22.50
2018-09-04T17:59:28.223Z,22.30
2018-09-04T18:01:54.954Z,22.00
2018-09-04T18:04:20.919Z,22.00
2018-09-04T18:06:46.881Z,21.90
2018-09-04T18:09:12.893Z,21.80
2018-09-04T18:11:38.894Z,21.80
2018-09-04T18:14:04.894Z,21.70
2018-09-04T18:16:30.977Z,21.60
2018-09-04T18:18:56.963Z,21.50
2018-09-04T18:21:22.960Z,21.60
2018-09-04T18:23:49.759Z,21.40
2018-09-04T18:26:15.808Z,21.40
2018-09-04T18:28:41.786Z,20.70
2018-09-04T18:31:07.776Z,21.20
2018-09-04T18:33:33.803Z,21.10
2018-09-04T18:35:59.900Z,21.00
2018-09-04T18:38:25.895Z,20.90
2018-09-04T18:40:51.877Z,20.80
2018-09-04T18:43:17.836Z,20.70
2018-09-04T18:45:43.808Z,20.70
2018-09-04T18:48:09.804Z,20.70
2018-09-04T18:50:35.776Z,20.60
2018-09-04T18:53:01.775Z,20.50
2018-09-04T18:55:28.527Z,20.30
2018-09-04T18:57:54.522Z,20.30
2018-09-04T19:00:20.479Z,20.20
2018-09-04T19:02:46.516Z,20.10
2018-09-04T19:05:12.482Z,20.00
2018-09-04T19:07:38.477Z,20.00
2018-09-04T19:10:04.489Z,20.00
2018-09-04T19:12:30.453Z,19.90
2018-09-04T19:14:58.214Z,19.80
2018-09-04T19:17:24.180Z,19.80
2018-09-04T19:19:50.906Z,19.90
2018-09-04T19:22:17.621Z,19.80
2018-09-04T19:24:43.600Z,19.80
2018-09-04T19:27:09.572Z,19.80
2018-09-04T19:29:35.670Z,19.80
2018-09-04T19:32:01.698Z,19.80
2018-09-04T19:34:27.851Z,19.90
2018-09-04T19:36:53.895Z,19.90
2018-09-04T19:39:19.959Z,19.90
2018-09-04T19:41:46.044Z,19.90
2018-09-04T19:44:12.752Z,19.70
2018-09-04T19:46:38.742Z,19.70
2018-09-04T19:49:04.806Z,19.60
2018-09-04T19:51:30.875Z,19.50
2018-09-04T19:53:56.867Z,19.40
2018-09-04T19:56:22.944Z,19.30
2018-09-04T19:58:48.902Z,19.30
2018-09-04T20:01:14.918Z,19.20
2018-09-04T20:03:40.934Z,19.10
2018-09-04T20:06:06.911Z,19.20
2018-09-04T20:08:32.931Z,19.10
2018-09-04T20:10:58.898Z,19.00
2018-09-04T20:13:25.006Z,18.90
2018-09-04T20:15:50.933Z,18.90
2018-09-04T20:18:16.888Z,18.90
2018-09-04T20:20:42.894Z,18.80
2018-09-04T20:23:08.862Z,18.80
2018-09-04T20:25:35.585Z,18.80
2018-09-04T20:28:02.312Z,18.70
2018-09-04T20:30:28.420Z,18.70
2018-09-04T20:32:54.388Z,18.60
2018-09-04T20:35:21.086Z,18.60
2018-09-04T20:37:47.157Z,18.60
2018-09-04T20:40:14.264Z,18.60
2018-09-04T20:42:40.513Z,18.50
2018-09-04T20:45:07.280Z,18.90
2018-09-04T20:47:34.015Z,18.40
2018-09-04T20:50:00.714Z,18.50
2018-09-04T20:52:26.752Z,18.40
2018-09-04T20:54:52.755Z,18.40
2018-09-04T20:57:18.756Z,18.30
2018-09-04T20:59:44.757Z,18.40
2018-09-04T21:02:10.736Z,18.30
2018-09-04T21:04:36.729Z,18.30
2018-09-04T21:07:02.718Z,18.20
2018-09-04T21:09:28.735Z,18.20
2018-09-04T21:11:54.830Z,18.20
2018-09-04T21:14:20.816Z,18.30
2018-09-04T21:16:46.819Z,18.30
2018-09-04T21:19:13.554Z,18.20
2018-09-04T21:21:40.245Z,18.30
2018-09-04T21:24:06.238Z,18.30
2018-09-04T21:26:32.218Z,18.30
2018-09-04T21:28:58.233Z,18.20
2018-09-04T21:31:24.282Z,18.20
2018-09-04T21:33:50.239Z,18.20
2018-09-04T21:36:16.234Z,18.20
2018-09-04T21:38:42.229Z,18.30
2018-09-04T21:41:08.220Z,18.20
2018-09-04T21:43:34.205Z,18.10
2018-09-04T21:46:00.926Z,18.10
2018-09-04T21:48:26.892Z,18.00
2018-09-04T21:50:52.891Z,18.00
2018-09-04T21:53:19.606Z,17.90
2018-09-04T21:55:45.592Z,17.90
2018-09-04T21:58:11.601Z,17.90
2018-09-04T22:00:37.628Z,17.90
2018-09-04T22:03:03.633Z,17.90
2018-09-04T22:05:29.617Z,17.80
2018-09-04T22:07:55.617Z,17.70
2018-09-04T22:10:21.602Z,17.60
2018-09-04T22:12:47.589Z,17.40
2018-09-04T22:15:13.566Z,17.50
2018-09-04T22:17:39.562Z,17.50
2018-09-04T22:20:05.567Z,17.60
2018-09-04T22:22:31.559Z,17.60
2018-09-04T22:24:57.529Z,17.60
2018-09-04T22:27:24.280Z,17.50
2018-09-04T22:29:50.966Z,17.50
2018-09-04T22:32:16.928Z,17.50
2018-09-04T22:34:42.919Z,17.40
2018-09-04T22:37:08.877Z,17.40
2018-09-04T22:39:35.056Z,17.40
2018-09-04T22:42:01.021Z,17.30
2018-09-04T22:44:26.974Z,17.30
2018-09-04T22:46:53.034Z,17.20
2018-09-04T22:49:19.020Z,17.10
2018-09-04T22:51:45.022Z,17.30
2018-09-04T22:54:10.974Z,17.20
2018-09-04T22:56:37.007Z,17.10
2018-09-04T22:59:02.970Z,17.00
2018-09-04T23:01:28.973Z,17.10
2018-09-04T23:03:54.942Z,17.10
2018-09-04T23:06:21.675Z,17.10
2018-09-04T23:08:47.648Z,17.10
2018-09-04T23:11:13.651Z,17.10
2018-09-04T23:13:39.610Z,17.00
2018-09-04T23:16:05.596Z,16.90
2018-09-04T23:18:31.558Z,16.80
2018-09-04T23:20:57.551Z,16.70
2018-09-04T23:23:23.544Z,16.70
2018-09-04T23:25:50.280Z,16.70
2018-09-04T23:28:17.029Z,16.70
2018-09-04T23:30:43.747Z,16.60
2018-09-04T23:33:09.733Z,16.60
2018-09-04T23:35:35.742Z,16.60
2018-09-04T23:38:01.741Z,16.50
2018-09-04T23:40:27.722Z,16.40
2018-09-04T23:42:53.713Z,16.40
2018-09-04T23:45:19.691Z,16.40
2018-09-04T23:47:45.691Z,16.50
2018-09-04T23:50:11.664Z,16.60
2018-09-04T23:52:37.694Z,16.60
2018-09-04T23:55:03.658Z,16.60
2018-09-04T23:57:29.648Z,16.50
2018-09-04T23:59:55.621Z,16.50
